sensor_id;sensor_type;location;lat;lon;timestamp;temperature;humidity
34829;DHT22;21042;47.620;12.188;2022-08-03T00:00:22;17.20;99.90
34829;DHT22;21042;47.620;12.188;2022-08-03T00:02:51;17.20;99.90
34829;DHT22;21042;47.620;12.188;2022-08-03T00:05:18;17.20;99.90
34829;DHT22;21042;47.620;12.188;2022-08-03T00:07:44;17.20;99.90
34829;DHT22;21042;47.620;12.188;2022-08-03T00:10:14;17.10;99.90
34829;DHT22;21042;47.620;12.188;2022-08-03T00:12:40;17.10;99.90
34829;DHT22;21042;47.620;12.188;2022-08-03T00:15:08;17.00;99.90
34829;DHT22;21042;47.620;12.188;2022-08-03T00:17:39;17.00;99.90
34829;DHT22;21042;47.620;12.188;2022-08-03T00:20:20;17.00;99.90
34829;DHT22;21042;47.620;12.188;2022-08-03T00:22:47;17.00;99.90
34829;DHT22;21042;47.620;12.188;2022-08-03T00:25:15;17.00;99.90
34829;DHT22;21042;47.620;12.188;2022-08-03T00:27:42;16.90;99.90
34829;DHT22;21042;47.620;12.188;2022-08-03T00:30:09;16.90;99.90
34829;DHT22;21042;47.620;12.188;2022-08-03T00:32:36;16.90;99.90
34829;DHT22;21042;47.620;12.188;2022-08-03T00:35:10;16.80;99.90
34829;DHT22;21042;47.620;12.188;2022-08-03T00:37:57;16.80;99.90
34829;DHT22;21042;47.620;12.188;2022-08-03T00:40:24;16.80;99.90
34829;DHT22;21042;47.620;12.188;2022-08-03T00:43:02;16.80;99.90
34829;DHT22;21042;47.620;12.188;2022-08-03T00:45:32;16.80;99.90
34829;DHT22;21042;47.620;12.188;2022-08-03T00:47:59;16.80;99.90
34829;DHT22;21042;47.620;12.188;2022-08-03T00:50:28;16.80;99.90
34829;DHT22;21042;47.620;12.188;2022-08-03T00:52:58;16.80;99.90
34829;DHT22;21042;47.620;12.188;2022-08-03T00:55:25;16.70;99.90
34829;DHT22;21042;47.620;12.188;2022-08-03T00:57:52;16.70;99.90
34829;DHT22;21042;47.620;12.188;2022-08-03T01:00:22;16.70;99.90
34829;DHT22;21042;47.620;12.188;2022-08-03T01:02:50;16.80;99.90
34829;DHT22;21042;47.620;12.188;2022-08-03T01:05:19;16.70;99.90
34829;DHT22;21042;47.620;12.188;2022-08-03T01:12:56;16.60;99.90
34829;DHT22;21042;47.620;12.188;2022-08-03T01:18:23;16.50;99.90
34829;DHT22;21042;47.620;12.188;2022-08-03T01:20:55;16.40;99.90
34829;DHT22;21042;47.620;12.188;2022-08-03T01:24:09;16.40;99.90
34829;DHT22;21042;47.620;12.188;2022-08-03T01:31:42;16.30;99.90
34829;DHT22;21042;47.620;12.188;2022-08-03T01:34:38;16.20;99.90
34829;DHT22;21042;47.620;12.188;2022-08-03T01:37:08;16.10;99.90
34829;DHT22;21042;47.620;12.188;2022-08-03T01:39:38;16.00;99.90
34829;DHT22;21042;47.620;12.188;2022-08-03T01:42:07;16.00;99.90
34829;DHT22;21042;47.620;12.188;2022-08-03T01:44:41;15.90;99.90
34829;DHT22;21042;47.620;12.188;2022-08-03T01:47:10;15.90;99.90
34829;DHT22;21042;47.620;12.188;2022-08-03T01:49:41;15.70;99.90
34829;DHT22;21042;47.620;12.188;2022-08-03T01:52:10;15.70;99.90
34829;DHT22;21042;47.620;12.188;2022-08-03T01:54:42;15.70;99.90
34829;DHT22;21042;47.620;12.188;2022-08-03T01:57:09;15.60;99.90
34829;DHT22;21042;47.620;12.188;2022-08-03T01:59:37;15.60;99.90
34829;DHT22;21042;47.620;12.188;2022-08-03T02:02:06;15.60;99.90
34829;DHT22;21042;47.620;12.188;2022-08-03T02:04:55;15.60;99.90
34829;DHT22;21042;47.620;12.188;2022-08-03T02:07:24;15.60;99.90
34829;DHT22;21042;47.620;12.188;2022-08-03T02:09:53;15.50;99.90
34829;DHT22;21042;47.620;12.188;2022-08-03T02:12:23;15.50;99.90
34829;DHT22;21042;47.620;12.188;2022-08-03T02:14:50;15.50;99.90
34829;DHT22;21042;47.620;12.188;2022-08-03T02:17:18;15.50;99.90
34829;DHT22;21042;47.620;12.188;2022-08-03T02:20:07;15.50;99.90
34829;DHT22;21042;47.620;12.188;2022-08-03T02:22:37;15.50;99.90
34829;DHT22;21042;47.620;12.188;2022-08-03T02:25:08;15.50;99.90
34829;DHT22;21042;47.620;12.188;2022-08-03T02:27:38;15.50;99.90
34829;DHT22;21042;47.620;12.188;2022-08-03T02:30:10;15.50;99.90
34829;DHT22;21042;47.620;12.188;2022-08-03T02:32:39;15.50;99.90
34829;DHT22;21042;47.620;12.188;2022-08-03T02:35:12;15.40;99.90
34829;DHT22;21042;47.620;12.188;2022-08-03T02:37:51;15.40;99.90
34829;DHT22;21042;47.620;12.188;2022-08-03T02:40:19;15.40;99.90
34829;DHT22;21042;47.620;12.188;2022-08-03T02:42:50;15.40;99.90
34829;DHT22;21042;47.620;12.188;2022-08-03T02:45:19;15.40;99.90
34829;DHT22;21042;47.620;12.188;2022-08-03T02:47:47;15.40;99.90
34829;DHT22;21042;47.620;12.188;2022-08-03T02:50:21;15.40;99.90
34829;DHT22;21042;47.620;12.188;2022-08-03T02:52:50;15.40;99.90
34829;DHT22;21042;47.620;12.188;2022-08-03T02:55:20;15.40;99.90
34829;DHT22;21042;47.620;12.188;2022-08-03T02:57:47;15.40;99.90
34829;DHT22;21042;47.620;12.188;2022-08-03T03:00:15;15.30;99.90
34829;DHT22;21042;47.620;12.188;2022-08-03T03:02:59;15.30;99.90
34829;DHT22;21042;47.620;12.188;2022-08-03T03:05:27;15.30;99.90
34829;DHT22;21042;47.620;12.188;2022-08-03T03:08:16;15.30;99.90
34829;DHT22;21042;47.620;12.188;2022-08-03T03:10:46;15.30;99.90
34829;DHT22;21042;47.620;12.188;2022-08-03T03:13:19;15.30;99.90
34829;DHT22;21042;47.620;12.188;2022-08-03T03:15:47;15.30;99.90
34829;DHT22;21042;47.620;12.188;2022-08-03T03:18:15;15.30;99.90
34829;DHT22;21042;47.620;12.188;2022-08-03T03:20:48;15.20;99.90
34829;DHT22;21042;47.620;12.188;2022-08-03T03:23:17;15.20;99.90
34829;DHT22;21042;47.620;12.188;2022-08-03T03:25:45;15.10;99.90
34829;DHT22;21042;47.620;12.188;2022-08-03T03:28:12;15.10;99.90
34829;DHT22;21042;47.620;12.188;2022-08-03T03:30:39;15.10;99.90
34829;DHT22;21042;47.620;12.188;2022-08-03T03:33:05;15.10;99.90
34829;DHT22;21042;47.620;12.188;2022-08-03T03:35:33;15.20;99.90
34829;DHT22;21042;47.620;12.188;2022-08-03T03:38:05;15.20;99.90
34829;DHT22;21042;47.620;12.188;2022-08-03T03:40:34;15.30;99.90
34829;DHT22;21042;47.620;12.188;2022-08-03T03:43:01;15.30;99.90
34829;DHT22;21042;47.620;12.188;2022-08-03T03:45:28;15.30;99.90
34829;DHT22;21042;47.620;12.188;2022-08-03T03:47:58;15.30;99.90
34829;DHT22;21042;47.620;12.188;2022-08-03T03:50:26;15.20;99.90
34829;DHT22;21042;47.620;12.188;2022-08-03T03:52:53;15.30;99.90
34829;DHT22;21042;47.620;12.188;2022-08-03T03:55:20;15.20;99.90
34829;DHT22;21042;47.620;12.188;2022-08-03T03:57:47;15.20;99.90
34829;DHT22;21042;47.620;12.188;2022-08-03T04:00:15;15.20;99.90
34829;DHT22;21042;47.620;12.188;2022-08-03T04:02:42;15.20;99.90
34829;DHT22;21042;47.620;12.188;2022-08-03T04:05:09;15.20;99.90
34829;DHT22;21042;47.620;12.188;2022-08-03T04:08:00;15.20;99.90
34829;DHT22;21042;47.620;12.188;2022-08-03T04:10:55;15.20;99.90
34829;DHT22;21042;47.620;12.188;2022-08-03T04:13:39;15.20;99.90
34829;DHT22;21042;47.620;12.188;2022-08-03T04:16:09;15.30;99.90
34829;DHT22;21042;47.620;12.188;2022-08-03T04:18:39;15.30;99.90
34829;DHT22;21042;47.620;12.188;2022-08-03T04:21:09;15.30;99.90
34829;DHT22;21042;47.620;12.188;2022-08-03T04:23:41;15.30;99.90
34829;DHT22;21042;47.620;12.188;2022-08-03T04:26:11;15.30;99.90
34829;DHT22;21042;47.620;12.188;2022-08-03T04:28:40;15.30;99.90
34829;DHT22;21042;47.620;12.188;2022-08-03T04:31:07;15.30;99.90
34829;DHT22;21042;47.620;12.188;2022-08-03T04:33:36;15.30;99.90
34829;DHT22;21042;47.620;12.188;2022-08-03T04:36:06;15.30;99.90
34829;DHT22;21042;47.620;12.188;2022-08-03T04:38:59;15.40;99.90
34829;DHT22;21042;47.620;12.188;2022-08-03T04:41:28;15.50;99.90
34829;DHT22;21042;47.620;12.188;2022-08-03T04:43:57;15.60;99.90
34829;DHT22;21042;47.620;12.188;2022-08-03T04:46:50;15.70;99.90
34829;DHT22;21042;47.620;12.188;2022-08-03T04:49:19;15.70;99.90
34829;DHT22;21042;47.620;12.188;2022-08-03T04:51:48;15.70;99.90
34829;DHT22;21042;47.620;12.188;2022-08-03T04:54:15;15.80;99.90
34829;DHT22;21042;47.620;12.188;2022-08-03T04:56:42;15.80;99.90
34829;DHT22;21042;47.620;12.188;2022-08-03T04:59:09;15.90;99.90
34829;DHT22;21042;47.620;12.188;2022-08-03T05:01:36;15.90;99.90
34829;DHT22;21042;47.620;12.188;2022-08-03T05:04:04;15.90;99.90
34829;DHT22;21042;47.620;12.188;2022-08-03T05:06:31;15.90;99.90
34829;DHT22;21042;47.620;12.188;2022-08-03T05:08:58;16.00;99.90
34829;DHT22;21042;47.620;12.188;2022-08-03T05:11:25;16.10;99.90
34829;DHT22;21042;47.620;12.188;2022-08-03T05:13:52;16.10;99.90
34829;DHT22;21042;47.620;12.188;2022-08-03T05:16:19;16.10;99.90
34829;DHT22;21042;47.620;12.188;2022-08-03T05:18:45;16.10;99.90
34829;DHT22;21042;47.620;12.188;2022-08-03T05:21:12;16.10;99.90
34829;DHT22;21042;47.620;12.188;2022-08-03T05:23:39;16.20;99.90
34829;DHT22;21042;47.620;12.188;2022-08-03T05:26:06;16.20;99.90
34829;DHT22;21042;47.620;12.188;2022-08-03T05:28:33;16.30;99.90
34829;DHT22;21042;47.620;12.188;2022-08-03T05:31:00;16.30;99.90
34829;DHT22;21042;47.620;12.188;2022-08-03T05:33:27;16.40;99.90
34829;DHT22;21042;47.620;12.188;2022-08-03T05:35:54;16.30;99.90
34829;DHT22;21042;47.620;12.188;2022-08-03T05:38:30;16.40;99.90
34829;DHT22;21042;47.620;12.188;2022-08-03T05:41:03;16.40;99.90
34829;DHT22;21042;47.620;12.188;2022-08-03T05:43:53;16.50;99.90
34829;DHT22;21042;47.620;12.188;2022-08-03T05:46:21;16.50;99.90
34829;DHT22;21042;47.620;12.188;2022-08-03T05:48:48;16.60;99.90
34829;DHT22;21042;47.620;12.188;2022-08-03T05:51:15;16.70;99.90
34829;DHT22;21042;47.620;12.188;2022-08-03T05:53:42;16.70;99.90
34829;DHT22;21042;47.620;12.188;2022-08-03T05:56:09;16.80;99.90
34829;DHT22;21042;47.620;12.188;2022-08-03T05:58:44;16.90;99.90
34829;DHT22;21042;47.620;12.188;2022-08-03T06:01:11;16.90;99.90
34829;DHT22;21042;47.620;12.188;2022-08-03T06:03:38;17.00;99.90
34829;DHT22;21042;47.620;12.188;2022-08-03T06:06:05;17.00;99.90
34829;DHT22;21042;47.620;12.188;2022-08-03T06:08:32;17.10;99.90
34829;DHT22;21042;47.620;12.188;2022-08-03T06:10:59;17.20;99.90
34829;DHT22;21042;47.620;12.188;2022-08-03T06:13:26;17.20;99.90
34829;DHT22;21042;47.620;12.188;2022-08-03T06:15:52;17.20;99.90
34829;DHT22;21042;47.620;12.188;2022-08-03T06:18:19;17.30;99.90
34829;DHT22;21042;47.620;12.188;2022-08-03T06:20:46;17.40;99.90
34829;DHT22;21042;47.620;12.188;2022-08-03T06:23:16;17.50;99.90
34829;DHT22;21042;47.620;12.188;2022-08-03T06:25:44;17.50;99.90
34829;DHT22;21042;47.620;12.188;2022-08-03T06:28:11;17.60;99.90
34829;DHT22;21042;47.620;12.188;2022-08-03T06:31:00;17.70;99.90
34829;DHT22;21042;47.620;12.188;2022-08-03T06:33:26;17.80;99.90
34829;DHT22;21042;47.620;12.188;2022-08-03T06:36:13;17.90;99.90
34829;DHT22;21042;47.620;12.188;2022-08-03T06:38:40;18.10;99.90
34829;DHT22;21042;47.620;12.188;2022-08-03T06:41:07;18.20;99.90
34829;DHT22;21042;47.620;12.188;2022-08-03T06:43:34;18.40;99.90
34829;DHT22;21042;47.620;12.188;2022-08-03T06:46:04;18.50;99.90
34829;DHT22;21042;47.620;12.188;2022-08-03T06:48:31;18.70;99.90
34829;DHT22;21042;47.620;12.188;2022-08-03T06:50:58;18.80;99.90
34829;DHT22;21042;47.620;12.188;2022-08-03T06:53:25;18.90;99.90
34829;DHT22;21042;47.620;12.188;2022-08-03T06:55:52;19.10;99.90
34829;DHT22;21042;47.620;12.188;2022-08-03T06:58:21;19.20;99.90
34829;DHT22;21042;47.620;12.188;2022-08-03T07:00:47;19.40;99.90
34829;DHT22;21042;47.620;12.188;2022-08-03T07:03:14;19.40;99.90
34829;DHT22;21042;47.620;12.188;2022-08-03T07:05:42;19.60;99.90
34829;DHT22;21042;47.620;12.188;2022-08-03T07:08:09;19.70;99.90
34829;DHT22;21042;47.620;12.188;2022-08-03T07:10:36;19.90;99.90
34829;DHT22;21042;47.620;12.188;2022-08-03T07:13:03;20.10;99.90
34829;DHT22;21042;47.620;12.188;2022-08-03T07:15:30;20.20;99.90
34829;DHT22;21042;47.620;12.188;2022-08-03T07:18:17;20.40;99.90
34829;DHT22;21042;47.620;12.188;2022-08-03T07:20:54;20.50;99.90
34829;DHT22;21042;47.620;12.188;2022-08-03T07:23:21;20.50;99.90
34829;DHT22;21042;47.620;12.188;2022-08-03T07:25:48;20.70;99.90
34829;DHT22;21042;47.620;12.188;2022-08-03T07:28:16;20.70;99.90
34829;DHT22;21042;47.620;12.188;2022-08-03T07:30:42;20.70;99.90
34829;DHT22;21042;47.620;12.188;2022-08-03T07:33:09;20.80;99.90
34829;DHT22;21042;47.620;12.188;2022-08-03T07:35:36;20.90;99.90
34829;DHT22;21042;47.620;12.188;2022-08-03T07:38:03;21.10;99.90
34829;DHT22;21042;47.620;12.188;2022-08-03T07:40:29;21.20;99.90
34829;DHT22;21042;47.620;12.188;2022-08-03T07:42:58;21.30;99.90
34829;DHT22;21042;47.620;12.188;2022-08-03T07:45:24;21.40;99.90
34829;DHT22;21042;47.620;12.188;2022-08-03T07:47:52;21.60;99.90
34829;DHT22;21042;47.620;12.188;2022-08-03T07:50:20;21.70;99.90
34829;DHT22;21042;47.620;12.188;2022-08-03T07:52:48;21.80;99.90
34829;DHT22;21042;47.620;12.188;2022-08-03T07:55:17;21.90;99.90
34829;DHT22;21042;47.620;12.188;2022-08-03T07:57:44;22.00;99.90
34829;DHT22;21042;47.620;12.188;2022-08-03T08:00:16;22.10;99.90
34829;DHT22;21042;47.620;12.188;2022-08-03T08:02:44;22.30;99.90
34829;DHT22;21042;47.620;12.188;2022-08-03T08:05:11;22.50;99.90
34829;DHT22;21042;47.620;12.188;2022-08-03T08:07:39;22.50;99.90
34829;DHT22;21042;47.620;12.188;2022-08-03T08:10:08;22.60;99.90
34829;DHT22;21042;47.620;12.188;2022-08-03T08:12:36;22.80;99.90
34829;DHT22;21042;47.620;12.188;2022-08-03T08:15:03;22.90;99.90
34829;DHT22;21042;47.620;12.188;2022-08-03T08:17:30;23.00;99.90
34829;DHT22;21042;47.620;12.188;2022-08-03T08:20:06;23.10;99.90
34829;DHT22;21042;47.620;12.188;2022-08-03T08:22:34;23.20;99.90
34829;DHT22;21042;47.620;12.188;2022-08-03T08:25:03;23.40;99.90
34829;DHT22;21042;47.620;12.188;2022-08-03T08:27:29;23.40;99.90
34829;DHT22;21042;47.620;12.188;2022-08-03T08:30:19;23.50;99.90
34829;DHT22;21042;47.620;12.188;2022-08-03T08:32:46;23.70;99.90
34829;DHT22;21042;47.620;12.188;2022-08-03T08:35:14;23.70;99.90
34829;DHT22;21042;47.620;12.188;2022-08-03T08:37:41;23.80;99.90
34829;DHT22;21042;47.620;12.188;2022-08-03T08:40:19;23.90;99.90
34829;DHT22;21042;47.620;12.188;2022-08-03T08:42:46;24.10;99.90
34829;DHT22;21042;47.620;12.188;2022-08-03T08:45:24;24.40;99.90
34829;DHT22;21042;47.620;12.188;2022-08-03T08:47:51;24.50;99.90
34829;DHT22;21042;47.620;12.188;2022-08-03T08:50:28;24.50;99.90
34829;DHT22;21042;47.620;12.188;2022-08-03T08:52:55;24.60;99.90
34829;DHT22;21042;47.620;12.188;2022-08-03T08:55:25;24.60;99.90
34829;DHT22;21042;47.620;12.188;2022-08-03T08:57:58;24.70;99.90
34829;DHT22;21042;47.620;12.188;2022-08-03T09:00:27;24.80;99.90
34829;DHT22;21042;47.620;12.188;2022-08-03T09:02:54;24.90;99.90
34829;DHT22;21042;47.620;12.188;2022-08-03T09:05:20;25.00;99.90
34829;DHT22;21042;47.620;12.188;2022-08-03T09:08:07;25.10;99.90
34829;DHT22;21042;47.620;12.188;2022-08-03T09:10:34;25.20;99.90
34829;DHT22;21042;47.620;12.188;2022-08-03T09:13:01;25.20;99.90
34829;DHT22;21042;47.620;12.188;2022-08-03T09:15:30;25.30;99.90
34829;DHT22;21042;47.620;12.188;2022-08-03T09:17:59;25.40;99.90
34829;DHT22;21042;47.620;12.188;2022-08-03T09:20:29;25.40;99.90
34829;DHT22;21042;47.620;12.188;2022-08-03T09:25:57;25.60;99.90
34829;DHT22;21042;47.620;12.188;2022-08-03T09:28:33;25.60;99.90
34829;DHT22;21042;47.620;12.188;2022-08-03T09:31:32;25.80;99.90
34829;DHT22;21042;47.620;12.188;2022-08-03T09:34:07;25.90;99.90
34829;DHT22;21042;47.620;12.188;2022-08-03T09:36:41;26.00;99.90
34829;DHT22;21042;47.620;12.188;2022-08-03T09:39:23;26.10;99.90
34829;DHT22;21042;47.620;12.188;2022-08-03T09:42:17;26.30;99.90
34829;DHT22;21042;47.620;12.188;2022-08-03T09:44:50;26.60;99.90
34829;DHT22;21042;47.620;12.188;2022-08-03T09:49:58;26.90;99.90
34829;DHT22;21042;47.620;12.188;2022-08-03T09:52:45;26.90;99.90
34829;DHT22;21042;47.620;12.188;2022-08-03T09:55:18;27.10;99.90
34829;DHT22;21042;47.620;12.188;2022-08-03T09:58:10;27.20;99.90
34829;DHT22;21042;47.620;12.188;2022-08-03T10:01:03;27.30;99.90
34829;DHT22;21042;47.620;12.188;2022-08-03T10:03:33;27.20;99.90
34829;DHT22;21042;47.620;12.188;2022-08-03T10:06:17;27.20;99.90
34829;DHT22;21042;47.620;12.188;2022-08-03T10:08:45;27.20;99.90
34829;DHT22;21042;47.620;12.188;2022-08-03T10:11:28;27.20;99.90
34829;DHT22;21042;47.620;12.188;2022-08-03T10:13:55;27.20;99.90
34829;DHT22;21042;47.620;12.188;2022-08-03T10:16:32;27.30;99.90
34829;DHT22;21042;47.620;12.188;2022-08-03T10:18:59;27.50;99.90
34829;DHT22;21042;47.620;12.188;2022-08-03T10:21:33;27.50;99.90
34829;DHT22;21042;47.620;12.188;2022-08-03T10:24:05;27.50;99.90
34829;DHT22;21042;47.620;12.188;2022-08-03T10:26:34;27.40;99.90
34829;DHT22;21042;47.620;12.188;2022-08-03T10:29:03;27.40;99.90
34829;DHT22;21042;47.620;12.188;2022-08-03T10:31:39;27.40;99.90
34829;DHT22;21042;47.620;12.188;2022-08-03T10:34:26;27.40;99.90
34829;DHT22;21042;47.620;12.188;2022-08-03T10:36:57;27.40;99.90
34829;DHT22;21042;47.620;12.188;2022-08-03T10:39:28;27.50;99.90
34829;DHT22;21042;47.620;12.188;2022-08-03T10:41:56;27.50;99.90
34829;DHT22;21042;47.620;12.188;2022-08-03T10:44:31;27.70;99.90
34829;DHT22;21042;47.620;12.188;2022-08-03T10:46:59;27.80;99.90
34829;DHT22;21042;47.620;12.188;2022-08-03T10:49:27;27.80;99.90
34829;DHT22;21042;47.620;12.188;2022-08-03T10:52:01;27.80;99.90
34829;DHT22;21042;47.620;12.188;2022-08-03T10:54:49;27.90;99.90
34829;DHT22;21042;47.620;12.188;2022-08-03T10:57:47;28.00;99.90
34829;DHT22;21042;47.620;12.188;2022-08-03T11:00:22;27.90;99.90
34829;DHT22;21042;47.620;12.188;2022-08-03T11:05:39;28.10;99.20
34829;DHT22;21042;47.620;12.188;2022-08-03T11:10:47;28.40;99.40
34829;DHT22;21042;47.620;12.188;2022-08-03T11:13:19;28.40;98.40
34829;DHT22;21042;47.620;12.188;2022-08-03T11:15:50;28.60;98.60
34829;DHT22;21042;47.620;12.188;2022-08-03T11:18:17;28.60;98.80
34829;DHT22;21042;47.620;12.188;2022-08-03T11:23:13;28.90;97.50
34829;DHT22;21042;47.620;12.188;2022-08-03T11:28:43;29.00;99.10
34829;DHT22;21042;47.620;12.188;2022-08-03T11:34:13;29.30;98.90
34829;DHT22;21042;47.620;12.188;2022-08-03T11:37:18;29.20;97.90
34829;DHT22;21042;47.620;12.188;2022-08-03T11:39:49;29.20;97.00
34829;DHT22;21042;47.620;12.188;2022-08-03T11:47:19;29.40;96.30
34829;DHT22;21042;47.620;12.188;2022-08-03T11:49:47;29.40;94.50
34829;DHT22;21042;47.620;12.188;2022-08-03T11:52:16;29.50;94.90
34829;DHT22;21042;47.620;12.188;2022-08-03T11:54:43;29.80;96.40
34829;DHT22;21042;47.620;12.188;2022-08-03T11:57:09;29.60;94.80
34829;DHT22;21042;47.620;12.188;2022-08-03T11:59:37;29.80;93.60
34829;DHT22;21042;47.620;12.188;2022-08-03T12:02:12;29.70;94.10
34829;DHT22;21042;47.620;12.188;2022-08-03T12:04:59;29.70;95.10
34829;DHT22;21042;47.620;12.188;2022-08-03T12:07:28;29.60;93.90
34829;DHT22;21042;47.620;12.188;2022-08-03T12:10:15;29.60;92.60
34829;DHT22;21042;47.620;12.188;2022-08-03T12:12:42;29.80;93.40
34829;DHT22;21042;47.620;12.188;2022-08-03T12:15:12;29.90;92.80
34829;DHT22;21042;47.620;12.188;2022-08-03T12:17:39;30.10;91.10
34829;DHT22;21042;47.620;12.188;2022-08-03T12:20:08;30.20;90.90
34829;DHT22;21042;47.620;12.188;2022-08-03T12:22:37;30.10;90.70
34829;DHT22;21042;47.620;12.188;2022-08-03T12:25:06;30.10;90.30
34829;DHT22;21042;47.620;12.188;2022-08-03T12:27:33;30.20;90.00
34829;DHT22;21042;47.620;12.188;2022-08-03T12:30:01;30.40;86.80
34829;DHT22;21042;47.620;12.188;2022-08-03T12:32:29;30.60;86.90
34829;DHT22;21042;47.620;12.188;2022-08-03T12:34:57;30.80;87.10
34829;DHT22;21042;47.620;12.188;2022-08-03T12:37:30;31.00;88.60
34829;DHT22;21042;47.620;12.188;2022-08-03T12:39:59;31.00;83.80
34829;DHT22;21042;47.620;12.188;2022-08-03T12:42:37;31.10;87.00
34829;DHT22;21042;47.620;12.188;2022-08-03T12:45:23;31.00;89.10
34829;DHT22;21042;47.620;12.188;2022-08-03T12:47:55;30.80;91.10
34829;DHT22;21042;47.620;12.188;2022-08-03T12:50:33;30.80;92.50
34829;DHT22;21042;47.620;12.188;2022-08-03T12:53:04;30.60;92.60
34829;DHT22;21042;47.620;12.188;2022-08-03T12:55:36;30.50;92.30
34829;DHT22;21042;47.620;12.188;2022-08-03T12:58:34;30.40;92.40
34829;DHT22;21042;47.620;12.188;2022-08-03T13:01:04;30.40;92.70
34829;DHT22;21042;47.620;12.188;2022-08-03T13:03:44;30.60;92.50
34829;DHT22;21042;47.620;12.188;2022-08-03T13:06:20;30.50;93.70
34829;DHT22;21042;47.620;12.188;2022-08-03T13:08:49;30.30;93.80
34829;DHT22;21042;47.620;12.188;2022-08-03T13:11:22;30.20;93.90
34829;DHT22;21042;47.620;12.188;2022-08-03T13:14:09;30.20;94.40
34829;DHT22;21042;47.620;12.188;2022-08-03T13:16:44;30.00;94.60
34829;DHT22;21042;47.620;12.188;2022-08-03T13:19:11;29.90;93.80
34829;DHT22;21042;47.620;12.188;2022-08-03T13:21:42;29.90;93.90
34829;DHT22;21042;47.620;12.188;2022-08-03T13:24:29;30.00;94.20
34829;DHT22;21042;47.620;12.188;2022-08-03T13:26:57;30.00;93.00
34829;DHT22;21042;47.620;12.188;2022-08-03T13:29:24;29.90;93.60
34829;DHT22;21042;47.620;12.188;2022-08-03T13:31:51;29.90;93.00
34829;DHT22;21042;47.620;12.188;2022-08-03T13:34:18;30.00;92.90
34829;DHT22;21042;47.620;12.188;2022-08-03T13:36:52;30.00;93.40
34829;DHT22;21042;47.620;12.188;2022-08-03T13:39:36;30.00;93.60
34829;DHT22;21042;47.620;12.188;2022-08-03T13:42:24;30.10;93.80
34829;DHT22;21042;47.620;12.188;2022-08-03T13:44:51;30.10;93.40
34829;DHT22;21042;47.620;12.188;2022-08-03T13:47:18;30.00;93.90
34829;DHT22;21042;47.620;12.188;2022-08-03T13:49:46;30.00;94.50
34829;DHT22;21042;47.620;12.188;2022-08-03T13:52:26;30.00;94.60
34829;DHT22;21042;47.620;12.188;2022-08-03T13:54:53;30.10;94.50
34829;DHT22;21042;47.620;12.188;2022-08-03T13:57:20;30.10;95.10
34829;DHT22;21042;47.620;12.188;2022-08-03T14:00:07;30.00;94.10
34829;DHT22;21042;47.620;12.188;2022-08-03T14:02:34;30.00;94.10
34829;DHT22;21042;47.620;12.188;2022-08-03T14:05:01;30.00;93.60
34829;DHT22;21042;47.620;12.188;2022-08-03T14:07:28;30.00;93.40
34829;DHT22;21042;47.620;12.188;2022-08-03T14:09:54;30.00;93.60
34829;DHT22;21042;47.620;12.188;2022-08-03T14:12:22;30.10;94.00
34829;DHT22;21042;47.620;12.188;2022-08-03T14:14:49;30.10;93.30
34829;DHT22;21042;47.620;12.188;2022-08-03T14:17:15;30.10;93.60
34829;DHT22;21042;47.620;12.188;2022-08-03T14:19:42;29.90;92.60
34829;DHT22;21042;47.620;12.188;2022-08-03T14:22:20;29.90;91.80
34829;DHT22;21042;47.620;12.188;2022-08-03T14:24:46;29.90;92.30
34829;DHT22;21042;47.620;12.188;2022-08-03T14:27:15;30.00;92.20
34829;DHT22;21042;47.620;12.188;2022-08-03T14:29:42;30.10;92.50
34829;DHT22;21042;47.620;12.188;2022-08-03T14:32:08;30.20;93.30
34829;DHT22;21042;47.620;12.188;2022-08-03T14:34:39;30.30;91.90
34829;DHT22;21042;47.620;12.188;2022-08-03T14:37:05;30.30;91.40
34829;DHT22;21042;47.620;12.188;2022-08-03T14:39:32;30.30;91.70
34829;DHT22;21042;47.620;12.188;2022-08-03T14:42:19;30.50;91.80
34829;DHT22;21042;47.620;12.188;2022-08-03T14:44:46;30.60;91.10
34829;DHT22;21042;47.620;12.188;2022-08-03T14:47:13;30.50;92.50
34829;DHT22;21042;47.620;12.188;2022-08-03T14:49:40;30.60;92.20
34829;DHT22;21042;47.620;12.188;2022-08-03T14:52:27;30.60;91.50
34829;DHT22;21042;47.620;12.188;2022-08-03T14:54:54;30.50;91.10
34829;DHT22;21042;47.620;12.188;2022-08-03T14:57:20;30.50;91.90
34829;DHT22;21042;47.620;12.188;2022-08-03T14:59:47;30.40;91.40
34829;DHT22;21042;47.620;12.188;2022-08-03T15:02:23;30.40;92.30
34829;DHT22;21042;47.620;12.188;2022-08-03T15:04:51;30.40;91.50
34829;DHT22;21042;47.620;12.188;2022-08-03T15:07:18;30.30;91.50
34829;DHT22;21042;47.620;12.188;2022-08-03T15:09:46;30.40;92.10
34829;DHT22;21042;47.620;12.188;2022-08-03T15:12:13;30.30;91.80
34829;DHT22;21042;47.620;12.188;2022-08-03T15:14:39;30.30;91.40
34829;DHT22;21042;47.620;12.188;2022-08-03T15:17:07;30.30;92.10
34829;DHT22;21042;47.620;12.188;2022-08-03T15:19:34;30.30;91.70
34829;DHT22;21042;47.620;12.188;2022-08-03T15:22:21;30.50;92.00
34829;DHT22;21042;47.620;12.188;2022-08-03T15:25:01;30.60;91.70
34829;DHT22;21042;47.620;12.188;2022-08-03T15:27:27;30.60;91.80
34829;DHT22;21042;47.620;12.188;2022-08-03T15:29:54;30.60;90.20
34829;DHT22;21042;47.620;12.188;2022-08-03T15:32:33;30.60;90.60
34829;DHT22;21042;47.620;12.188;2022-08-03T15:35:00;30.50;90.30
34829;DHT22;21042;47.620;12.188;2022-08-03T15:37:27;30.50;90.30
34829;DHT22;21042;47.620;12.188;2022-08-03T15:39:54;30.30;90.30
34829;DHT22;21042;47.620;12.188;2022-08-03T15:42:26;30.40;90.10
34829;DHT22;21042;47.620;12.188;2022-08-03T15:44:53;30.30;90.10
34829;DHT22;21042;47.620;12.188;2022-08-03T15:47:20;30.20;90.70
34829;DHT22;21042;47.620;12.188;2022-08-03T15:49:47;30.30;89.50
34829;DHT22;21042;47.620;12.188;2022-08-03T15:52:14;30.30;88.90
34829;DHT22;21042;47.620;12.188;2022-08-03T15:54:41;30.40;89.10
34829;DHT22;21042;47.620;12.188;2022-08-03T15:57:07;30.50;89.70
34829;DHT22;21042;47.620;12.188;2022-08-03T15:59:34;30.60;88.80
34829;DHT22;21042;47.620;12.188;2022-08-03T16:02:01;30.70;88.80
34829;DHT22;21042;47.620;12.188;2022-08-03T16:04:28;30.80;88.70
34829;DHT22;21042;47.620;12.188;2022-08-03T16:06:54;30.90;86.50
34829;DHT22;21042;47.620;12.188;2022-08-03T16:09:21;31.00;86.20
34829;DHT22;21042;47.620;12.188;2022-08-03T16:12:08;31.20;87.20
34829;DHT22;21042;47.620;12.188;2022-08-03T16:14:42;31.40;84.30
34829;DHT22;21042;47.620;12.188;2022-08-03T16:17:19;32.00;84.40